Weather at G 522 Airport

Public forecast

Using degrees Celsius for public forecast. Weather courtesy of forecast.io.

Closest aviation weather report (METAR) to G 522 Airport

Report is more than 6 hours old.

Closest report is Seongmu Airport, 28.4 nm (52.7 km) NW. Retrieved 2020/10/28 01:47 UTC (3 days ago):

RKTE 280147Z 01003KT 4800 BR FEW015 BKN025 16/12 A3019 RMK CIG025

Closest aviation forecast (TAF) to G 522 Airport

Forecast is more than 6 hours old.

Closest forecast is Cheongju International Airport/Cheongju Air Base (K-59/G-513), 36.2 nm (67.0 km) NNW. Retrieved 2020/10/30 12:00 UTC (7 hours ago):

TAF RKTU 301100Z 3012/3118 06006KT 9999 SCT040 TN02/3021Z TX19/3106Z BECMG 3017/3018 4800 BR NSC BECMG 3023/3024 CAVOK